Impacts TAF Board
For situational awareness. Not to be used for flight planning purposes.
IDs:

KPHX - Phoenix/Sky Harbor, AZ, US

Issued at 1329 UTC 30 Mar 2020
Updated at 1356 UTC 30 Mar 2020
Potential Impact None Slight Moderate High
Time1351Z 30/14Z 30/15Z 30/16Z 30/17Z 30/18Z 30/19Z 30/20Z 30/21Z 30/22Z 30/23Z 31/00Z 31/01Z 31/02Z>>
Type OBS PRVL
  [TEMP]  
PRVL
  [TEMP]  
PRVL
  [TEMP]  
PRVL PRVL PRVL PRVL PRVL PRVL PRVL PRVL PRVL PRVL
VIS 10 >6 >6 >6 >6 >6 >6 >6 >6 >6 >6 >6 >6 >6
CIG -- --
  [--]  
--
  [--]  
--
  [--]  
-- -- -- -- -- -- -- -- -- --
Cover CLR SKC
  [SKC]  
SKC
  [SKC]  
SKC
  [SKC]  
SKC SKC SKC SKC SKC SKC SKC SKC SKC SKC
FltCat VFR VFR
  [VFR]  
VFR
  [VFR]  
VFR
  [VFR]  
VFR VFR VFR VFR VFR VFR VFR VFR VFR VFR
WX -- --
  [--]  
--
  [--]  
--
  [--]  
-- -- -- -- -- -- -- -- -- --
WDir 70 VRB
[90]
VRB
[90]
VRB
[90]
VRB 280 280 280 280 280 280 280 280 280
WSpd 6 5
  [6]  
5
  [6]  
5
  [6]  
5 7 7 7 7 7 7 7 7 7
WGst -- --
  [--]  
--
  [--]  
--
  [--]  
-- -- -- -- -- -- -- -- -- --
Raw TAF
KPHX 301329Z 3013/3118 VRB05KT P6SM SKC
  TEMPO 3013/3017 09006KT
  FM301800 28007KT P6SM SKC
  FM310500 10005KT P6SM FEW250


Raw METAR
KPHX 301351Z 07006KT 10SM CLR 12/02 A3009 RMK AO2 SLP180 T01170017
KPHX 301251Z 00000KT 10SM FEW180 12/03 A3005 RMK AO2 SLP165 T01220033
KPHX 301151Z 03003KT 10SM CLR 13/01 A3001 RMK AO2 SLP152 T01330006 10183 20133 51014
KPHX 301051Z 28007KT 10SM CLR 15/M02 A3001 RMK AO2 SLP150 T01501017

METAR Board
Radar Display
Forecast Discussion
For situational awareness. Not to be used for flight planning purposes.